createdAt,value
2023-03-14T00:00:00.360Z,926.01
2023-03-14T00:00:31.898Z,925.94
2023-03-14T00:01:03.356Z,925.94
2023-03-14T00:01:33.782Z,926.11
2023-03-14T00:02:04.485Z,926.11
2023-03-14T00:02:35.598Z,925.94
2023-03-14T00:03:06.215Z,925.94
2023-03-14T00:03:37.324Z,925.94
2023-03-14T00:04:08.320Z,925.94
2023-03-14T00:04:39.174Z,925.94
2023-03-14T00:05:10.267Z,926.11
2023-03-14T00:05:41.489Z,926.11
2023-03-14T00:06:13.433Z,926.01
2023-03-14T00:06:43.201Z,926.01
2023-03-14T00:07:14.507Z,925.94
2023-03-14T00:07:45.376Z,925.94
2023-03-14T00:08:16.176Z,925.63
2023-03-14T00:08:47.499Z,925.63
2023-03-14T00:09:18.422Z,925.74
2023-03-14T00:09:49.349Z,925.74
2023-03-14T00:10:20.425Z,925.74
2023-03-14T00:10:51.391Z,925.74
2023-03-14T00:11:23.175Z,925.84
2023-03-14T00:11:53.235Z,925.84
2023-03-14T00:12:24.273Z,925.84
2023-03-14T00:12:55.292Z,925.84
2023-03-14T00:13:26.508Z,926.01
2023-03-14T00:13:57.688Z,926.01
2023-03-14T00:14:28.344Z,925.94
2023-03-14T00:14:59.241Z,925.94
2023-03-14T00:15:30.683Z,926.01
2023-03-14T00:16:01.232Z,926.01
2023-03-14T00:16:33.342Z,925.94
2023-03-14T00:17:03.500Z,925.94
2023-03-14T00:17:34.918Z,925.94
2023-03-14T00:18:05.431Z,925.94
2023-03-14T00:18:36.374Z,925.84
2023-03-14T00:19:07.377Z,925.84
2023-03-14T00:19:38.319Z,925.84
2023-03-14T00:20:09.461Z,925.84
2023-03-14T00:20:40.178Z,925.84
2023-03-14T00:21:11.144Z,926.01
2023-03-14T00:21:43.359Z,926.01
2023-03-14T00:22:13.350Z,925.84
2023-03-14T00:22:44.673Z,925.84
2023-03-14T00:23:15.763Z,926.01
2023-03-14T00:23:46.660Z,926.01
2023-03-14T00:24:17.684Z,926.01
2023-03-14T00:24:48.104Z,926.01
2023-03-14T00:25:19.461Z,925.94
2023-03-14T00:25:50.466Z,925.94
2023-03-14T00:26:21.230Z,926.01
2023-03-14T00:26:53.798Z,926.01
2023-03-14T00:27:23.503Z,925.94
2023-03-14T00:27:54.762Z,925.94
2023-03-14T00:28:25.124Z,925.94
2023-03-14T00:28:56.009Z,925.94
2023-03-14T00:29:27.538Z,925.94
2023-03-14T00:29:58.131Z,925.94
2023-03-14T00:30:29.547Z,925.84
2023-03-14T00:31:00.296Z,925.84
2023-03-14T00:31:31.158Z,926.01
2023-03-14T00:32:03.205Z,926.01
2023-03-14T00:32:33.272Z,926.11
2023-03-14T00:33:04.178Z,926.11
2023-03-14T00:33:35.153Z,926.11
2023-03-14T00:34:06.214Z,926.11
2023-03-14T00:34:37.257Z,926.01
2023-03-14T00:35:08.508Z,926.01
2023-03-14T00:35:39.150Z,926.01
2023-03-14T00:36:10.339Z,926.01
2023-03-14T00:36:41.339Z,926.01
2023-03-14T00:37:13.354Z,925.94
2023-03-14T00:37:43.738Z,925.94
2023-03-14T00:38:14.468Z,926.11
2023-03-14T00:38:45.881Z,926.11
2023-03-14T00:39:16.566Z,926.11
2023-03-14T00:39:47.275Z,926.11
2023-03-14T00:40:18.176Z,926.01
2023-03-14T00:40:49.486Z,926.01
2023-03-14T00:41:20.134Z,926.11
2023-03-14T00:41:51.535Z,926.11
2023-03-14T00:42:23.252Z,925.74
2023-03-14T00:42:53.340Z,925.74
2023-03-14T00:43:24.487Z,925.74
2023-03-14T00:43:55.560Z,925.74
2023-03-14T00:44:26.386Z,926.01
2023-03-14T00:44:57.839Z,926.01
2023-03-14T00:45:28.860Z,925.84
2023-03-14T00:45:59.246Z,925.84
2023-03-14T00:46:30.400Z,925.63
2023-03-14T00:47:01.635Z,925.63
2023-03-14T00:47:33.387Z,925.84
2023-03-14T00:48:03.330Z,925.84
2023-03-14T00:48:34.220Z,925.84
2023-03-14T00:49:05.225Z,925.84
2023-03-14T00:49:36.564Z,925.74
2023-03-14T00:50:07.528Z,925.74
2023-03-14T00:50:38.099Z,925.63
2023-03-14T00:51:09.082Z,925.63
2023-03-14T00:51:40.253Z,925.63
2023-03-14T00:52:11.424Z,925.63
2023-03-14T00:52:43.496Z,925.63
2023-03-14T00:53:13.072Z,925.63
2023-03-14T00:53:44.325Z,925.63
2023-03-14T00:54:15.221Z,925.63
2023-03-14T00:54:46.462Z,925.63
2023-03-14T00:55:17.321Z,926.01
2023-03-14T00:55:48.551Z,926.01
2023-03-14T00:56:19.239Z,925.43
2023-03-14T00:56:50.610Z,925.43
2023-03-14T00:57:21.777Z,925.53
2023-03-14T00:57:53.633Z,925.53
2023-03-14T00:58:23.363Z,925.53
2023-03-14T00:58:54.419Z,925.53
2023-03-14T00:59:25.102Z,925.74
2023-03-14T00:59:56.353Z,925.74
2023-03-14T01:00:29.951Z,925.63
2023-03-14T01:00:58.445Z,925.63
2023-03-14T01:01:29.443Z,925.74
2023-03-14T01:02:00.140Z,925.74
2023-03-14T01:02:31.294Z,925.74
2023-03-14T01:03:03.293Z,925.74
2023-03-14T01:03:33.437Z,925.33
2023-03-14T01:04:04.584Z,925.33
2023-03-14T01:04:35.240Z,925.43
2023-03-14T01:05:06.248Z,925.43
2023-03-14T01:05:37.069Z,925.43
2023-03-14T01:06:08.303Z,925.63
2023-03-14T01:06:39.019Z,925.63
2023-03-14T01:07:10.218Z,925.63
2023-03-14T01:07:41.435Z,925.63
2023-03-14T01:08:13.088Z,925.53
2023-03-14T01:08:43.142Z,925.53
2023-03-14T01:09:14.639Z,925.43
2023-03-14T01:09:45.388Z,925.43
2023-03-14T01:10:16.249Z,925.43
2023-03-14T01:10:47.313Z,925.43
2023-03-14T01:11:18.489Z,925.74
2023-03-14T01:11:49.641Z,925.74
2023-03-14T01:12:21.538Z,925.63
2023-03-14T01:12:51.349Z,925.63
2023-03-14T01:13:23.316Z,925.33
2023-03-14T01:13:53.491Z,925.33
2023-03-14T01:14:24.491Z,925.53
2023-03-14T01:14:55.379Z,925.53
2023-03-14T01:15:29.135Z,925.53
2023-03-14T01:15:57.452Z,925.53
2023-03-14T01:16:28.340Z,925.53
2023-03-14T01:16:59.461Z,925.53
2023-03-14T01:17:30.402Z,925.63
2023-03-14T01:18:01.271Z,925.63
2023-03-14T01:18:33.129Z,925.53
2023-03-14T01:19:03.396Z,925.53
2023-03-14T01:19:34.356Z,925.53
2023-03-14T01:20:05.382Z,925.53
2023-03-14T01:20:36.356Z,925.53
2023-03-14T01:21:07.427Z,925.53
2023-03-14T01:21:38.382Z,925.63
2023-03-14T01:22:09.435Z,925.43
2023-03-14T01:22:40.331Z,925.43
2023-03-14T01:23:11.439Z,925.53
2023-03-14T01:23:43.192Z,925.53
2023-03-14T01:24:13.978Z,925.53
2023-03-14T01:24:44.686Z,925.53
2023-03-14T01:25:15.869Z,925.43
2023-03-14T01:25:46.659Z,925.43
2023-03-14T01:26:17.749Z,925.43
2023-03-14T01:26:48.669Z,925.43
2023-03-14T01:27:19.589Z,925.53
2023-03-14T01:27:50.823Z,925.53
2023-03-14T01:28:21.727Z,925.74
2023-03-14T01:28:53.690Z,925.74
2023-03-14T01:29:23.530Z,925.53
2023-03-14T01:29:54.544Z,925.53
2023-03-14T01:30:28.291Z,925.53
2023-03-14T01:30:56.662Z,925.53
2023-03-14T01:31:27.249Z,925.33
2023-03-14T01:31:58.294Z,925.33
2023-03-14T01:32:29.840Z,925.43
2023-03-14T01:33:00.375Z,925.43
2023-03-14T01:33:31.568Z,925.23
2023-03-14T01:34:03.306Z,925.23
2023-03-14T01:34:33.391Z,925.63
2023-03-14T01:35:04.326Z,925.63
2023-03-14T01:35:35.309Z,925.43
2023-03-14T01:36:06.647Z,925.43
2023-03-14T01:36:37.528Z,925.33
2023-03-14T01:37:08.248Z,925.23
2023-03-14T01:37:39.297Z,925.23
2023-03-14T01:38:10.352Z,925.33
2023-03-14T01:38:41.456Z,925.33
2023-03-14T01:39:13.435Z,925.13
2023-03-14T01:39:43.178Z,925.13
2023-03-14T01:40:15.453Z,925.13
2023-03-14T01:40:47.873Z,925.13
2023-03-14T01:41:16.638Z,925.33
2023-03-14T01:41:47.754Z,925.33
2023-03-14T01:42:18.662Z,925.33
2023-03-14T01:42:49.588Z,925.33
2023-03-14T01:43:20.298Z,925.33
2023-03-14T01:43:52.237Z,925.33
2023-03-14T01:44:23.875Z,925.23
2023-03-14T01:44:53.963Z,925.23
2023-03-14T01:45:27.493Z,925.23
2023-03-14T01:45:56.146Z,925.23
2023-03-14T01:46:26.790Z,925.13
2023-03-14T01:46:58.069Z,925.13
2023-03-14T01:47:29.161Z,925.33
2023-03-14T01:47:59.985Z,925.33
2023-03-14T01:48:30.559Z,925.02
2023-03-14T01:49:01.869Z,925.02
2023-03-14T01:49:33.502Z,925.33
2023-03-14T01:50:03.601Z,925.33
2023-03-14T01:50:35.099Z,925.23
2023-03-14T01:51:05.661Z,925.23
2023-03-14T01:51:36.498Z,925.23
2023-03-14T01:52:07.564Z,925.23
2023-03-14T01:52:38.916Z,925.13
2023-03-14T01:53:09.736Z,924.92
2023-03-14T01:53:41.373Z,924.92
2023-03-14T01:54:11.242Z,925.23
2023-03-14T01:54:43.623Z,925.23
2023-03-14T01:55:13.375Z,924.92
2023-03-14T01:55:44.692Z,924.92
2023-03-14T01:56:15.533Z,925.02
2023-03-14T01:56:47.021Z,925.02
2023-03-14T01:57:17.678Z,924.92
2023-03-14T01:57:48.757Z,924.92
2023-03-14T01:58:19.374Z,924.92
2023-03-14T01:58:50.807Z,924.92
2023-03-14T01:59:21.413Z,925.02
2023-03-14T01:59:53.302Z,925.02
2023-03-14T02:00:26.882Z,924.92
2023-03-14T02:00:54.614Z,924.92
2023-03-14T02:01:25.603Z,924.92
2023-03-14T02:01:56.714Z,924.92
2023-03-14T02:02:27.602Z,925.13
2023-03-14T02:02:58.896Z,925.13
2023-03-14T02:03:29.646Z,924.72
2023-03-14T02:04:00.839Z,924.72
2023-03-14T02:04:31.821Z,924.92
2023-03-14T02:05:03.566Z,924.92
2023-03-14T02:05:33.380Z,924.82
2023-03-14T02:06:04.684Z,924.82
2023-03-14T02:06:35.854Z,924.82
2023-03-14T02:07:06.739Z,924.82
2023-03-14T02:07:37.517Z,924.82
2023-03-14T02:08:08.937Z,925.02
2023-03-14T02:08:39.995Z,925.02
2023-03-14T02:09:10.389Z,924.92
2023-03-14T02:09:41.442Z,924.92
2023-03-14T02:10:13.997Z,924.82
2023-03-14T02:10:43.813Z,924.82
2023-03-14T02:11:14.741Z,924.72
2023-03-14T02:11:45.666Z,924.72
2023-03-14T02:12:19.401Z,924.82
2023-03-14T02:12:47.584Z,924.82
2023-03-14T02:14:43.881Z,924.82
2023-03-14T02:15:27.053Z,925.02
2023-03-14T02:15:53.332Z,925.02
2023-03-14T02:16:24.789Z,924.82
2023-03-14T02:16:55.325Z,924.82
2023-03-14T02:17:26.339Z,924.82
2023-03-14T02:17:57.601Z,924.82
2023-03-14T02:18:28.780Z,924.72
2023-03-14T02:18:59.466Z,924.72
2023-03-14T02:19:30.401Z,924.82
2023-03-14T02:20:01.662Z,924.82
2023-03-14T02:20:33.333Z,924.52
2023-03-14T02:21:03.492Z,924.52
2023-03-14T02:21:34.352Z,924.41
2023-03-14T02:22:05.469Z,924.41
2023-03-14T02:22:36.521Z,924.72
2023-03-14T02:23:07.831Z,924.72
2023-03-14T02:23:38.306Z,924.52
2023-03-14T02:24:09.270Z,924.52
2023-03-14T02:24:40.361Z,924.52
2023-03-14T02:25:11.217Z,924.41
2023-03-14T02:25:43.374Z,924.41
2023-03-14T02:26:13.609Z,924.62
2023-03-14T02:26:44.358Z,924.62
2023-03-14T02:27:15.489Z,924.41
2023-03-14T02:27:46.381Z,924.41
2023-03-14T02:28:17.188Z,924.41
2023-03-14T02:28:48.200Z,924.41
2023-03-14T02:29:19.726Z,924.62
2023-03-14T02:29:50.718Z,924.62
2023-03-14T02:30:24.458Z,924.52
2023-03-14T02:30:53.619Z,924.52
2023-03-14T02:31:23.373Z,924.52
2023-03-14T02:31:54.507Z,924.52
2023-03-14T02:32:25.450Z,924.41
2023-03-14T02:32:56.449Z,924.41
2023-03-14T02:33:27.705Z,924.52
2023-03-14T02:33:58.396Z,924.52
2023-03-14T02:34:29.377Z,924.31
2023-03-14T02:35:00.325Z,924.31
2023-03-14T02:35:31.388Z,924.52
2023-03-14T02:36:03.715Z,924.52
2023-03-14T02:36:33.184Z,924.41
2023-03-14T02:37:04.153Z,924.41
2023-03-14T02:37:35.143Z,924.21
2023-03-14T02:38:06.160Z,924.21
2023-03-14T02:38:37.526Z,924.21
2023-03-14T02:39:09.138Z,924.21
2023-03-14T02:39:39.636Z,924.21
2023-03-14T02:40:10.331Z,924.11
2023-03-14T02:40:41.396Z,924.11
2023-03-14T02:41:13.480Z,924.21
2023-03-14T02:41:43.621Z,924.21
2023-03-14T02:42:14.356Z,924.21
2023-03-14T02:42:45.423Z,924.21
2023-03-14T02:43:16.470Z,924.01
2023-03-14T02:43:47.677Z,924.01
2023-03-14T02:44:18.101Z,924.01
2023-03-14T02:44:49.370Z,924.01
2023-03-14T02:45:23.142Z,924.21
2023-03-14T02:45:51.203Z,924.21
2023-03-14T02:46:23.552Z,924.11
2023-03-14T02:46:53.824Z,924.11
2023-03-14T02:47:24.632Z,924.01
2023-03-14T02:47:55.454Z,924.01
2023-03-14T02:48:26.515Z,924.31
2023-03-14T02:48:57.772Z,924.31
2023-03-14T02:49:28.333Z,924.11
2023-03-14T02:49:59.283Z,924.11
2023-03-14T02:50:30.429Z,924.21
2023-03-14T02:51:01.651Z,924.21
2023-03-14T02:51:33.755Z,924.11
2023-03-14T02:52:03.406Z,924.11
2023-03-14T02:52:34.434Z,924.31
2023-03-14T02:53:05.219Z,924.31
2023-03-14T02:53:36.195Z,924.41
2023-03-14T02:54:07.291Z,924.41
2023-03-14T02:54:38.527Z,924.62
2023-03-14T02:55:09.868Z,924.21
2023-03-14T02:55:40.699Z,924.21
2023-03-14T02:56:11.422Z,924.31
2023-03-14T02:56:43.491Z,924.31
2023-03-14T02:57:13.556Z,924.21
2023-03-14T02:57:44.276Z,924.21
2023-03-14T02:58:15.354Z,924.21
2023-03-14T02:58:46.639Z,924.21
2023-03-14T02:59:17.285Z,924.11
2023-03-14T02:59:48.535Z,924.11
2023-03-14T03:00:22.305Z,924.31
2023-03-14T03:00:50.673Z,924.31
2023-03-14T03:01:21.344Z,924.01
2023-03-14T03:01:53.421Z,924.01
2023-03-14T03:02:23.206Z,924.11
2023-03-14T03:02:54.786Z,924.11
2023-03-14T03:03:25.525Z,924.01
2023-03-14T03:03:56.272Z,924.01
2023-03-14T03:04:27.469Z,924.01
2023-03-14T03:04:58.668Z,924.01
2023-03-14T03:05:29.366Z,923.74
2023-03-14T03:06:00.472Z,923.74
2023-03-14T03:06:31.335Z,924.11
2023-03-14T03:07:03.312Z,924.11
2023-03-14T03:07:33.252Z,924.11
2023-03-14T03:08:04.216Z,924.11
2023-03-14T03:08:35.560Z,924.11
2023-03-14T03:09:06.295Z,924.11
2023-03-14T03:09:37.430Z,924.01
2023-03-14T03:10:08.431Z,924.01
2023-03-14T03:10:39.588Z,924.01
2023-03-14T03:11:10.694Z,924.01
2023-03-14T03:11:41.453Z,924.01
2023-03-14T03:12:13.384Z,923.84
2023-03-14T03:12:43.874Z,923.84
2023-03-14T03:13:14.520Z,923.74
2023-03-14T03:13:45.820Z,923.74
2023-03-14T03:14:16.312Z,923.84
2023-03-14T03:14:47.357Z,923.84
2023-03-14T03:15:20.973Z,923.64
2023-03-14T03:15:49.365Z,923.64
2023-03-14T03:16:20.579Z,923.74
2023-03-14T03:16:51.849Z,923.74
2023-03-14T03:17:23.521Z,923.91
2023-03-14T03:17:53.296Z,923.91
2023-03-14T03:18:24.397Z,923.74
2023-03-14T03:18:55.900Z,923.74
2023-03-14T03:19:26.692Z,923.84
2023-03-14T03:19:57.449Z,923.84
2023-03-14T03:20:28.435Z,923.74
2023-03-14T03:20:59.443Z,923.74
2023-03-14T03:21:30.341Z,923.84
2023-03-14T03:22:01.561Z,923.84
2023-03-14T03:22:33.686Z,923.84
2023-03-14T03:23:03.449Z,923.84
2023-03-14T03:23:34.465Z,923.91
2023-03-14T03:24:05.272Z,923.91
2023-03-14T03:24:36.307Z,923.84
2023-03-14T03:25:07.303Z,923.84
2023-03-14T03:25:38.305Z,923.84
2023-03-14T03:26:09.638Z,923.84
2023-03-14T03:26:40.422Z,923.84
2023-03-14T03:27:11.305Z,923.64
2023-03-14T03:27:43.457Z,923.64
2023-03-14T03:28:13.496Z,923.74
2023-03-14T03:28:44.316Z,923.74
2023-03-14T03:29:15.303Z,923.91
2023-03-14T03:29:46.352Z,923.91
2023-03-14T03:30:20.015Z,923.74
2023-03-14T03:30:48.376Z,923.74
2023-03-14T03:31:19.439Z,923.84
2023-03-14T03:31:50.489Z,923.84
2023-03-14T03:32:21.525Z,923.74
2023-03-14T03:32:54.155Z,923.74
2023-03-14T03:33:23.656Z,923.84
2023-03-14T03:33:54.738Z,923.84
2023-03-14T03:34:25.672Z,923.84
2023-03-14T03:34:56.413Z,923.84
2023-03-14T03:35:27.244Z,923.84
2023-03-14T03:35:58.818Z,923.84
2023-03-14T03:36:29.335Z,923.91
2023-03-14T03:37:00.322Z,923.91
2023-03-14T03:37:31.532Z,923.74
2023-03-14T03:38:03.447Z,923.74
2023-03-14T03:38:33.574Z,923.74
2023-03-14T03:39:04.294Z,923.74
2023-03-14T03:39:35.253Z,923.84
2023-03-14T03:40:06.265Z,923.84
2023-03-14T03:40:37.443Z,923.53
2023-03-14T03:41:08.574Z,923.84
2023-03-14T03:41:39.640Z,923.84
2023-03-14T03:42:10.653Z,923.91
2023-03-14T03:42:41.412Z,923.91
2023-03-14T03:43:13.823Z,923.84
2023-03-14T03:43:43.761Z,923.84
2023-03-14T03:44:14.740Z,923.74
2023-03-14T03:44:45.507Z,923.74
2023-03-14T03:45:19.330Z,923.74
2023-03-14T03:45:47.768Z,923.74
2023-03-14T03:46:18.951Z,923.74
2023-03-14T03:46:49.879Z,923.74
2023-03-14T03:47:20.752Z,923.53
2023-03-14T03:47:51.419Z,923.53
2023-03-14T03:48:23.650Z,923.74
2023-03-14T03:48:53.436Z,923.74
2023-03-14T03:49:24.373Z,923.91
2023-03-14T03:49:55.788Z,923.91
2023-03-14T03:50:26.540Z,923.91
2023-03-14T03:50:57.715Z,923.91
2023-03-14T03:51:28.597Z,923.91
2023-03-14T03:51:59.736Z,923.91
2023-03-14T03:52:30.997Z,923.91
2023-03-14T03:53:01.421Z,923.91
2023-03-14T03:53:34.192Z,923.91
2023-03-14T03:54:03.436Z,923.91
2023-03-14T03:54:34.426Z,923.84
2023-03-14T03:55:05.326Z,923.84
2023-03-14T03:55:36.472Z,923.84
2023-03-14T03:56:07.366Z,923.84
2023-03-14T03:56:38.437Z,924.01
2023-03-14T03:57:10.031Z,923.84
2023-03-14T03:57:40.718Z,923.84
2023-03-14T03:58:11.984Z,924.01
2023-03-14T03:58:44.148Z,924.01
2023-03-14T03:59:13.740Z,923.74
2023-03-14T03:59:45.093Z,923.74
2023-03-14T04:00:18.406Z,924.01
2023-03-14T04:00:46.907Z,924.01
2023-03-14T04:01:17.734Z,923.64
2023-03-14T04:01:48.827Z,923.64
2023-03-14T04:02:19.591Z,923.84
2023-03-14T04:02:50.720Z,923.84
2023-03-14T04:03:21.301Z,923.74
2023-03-14T04:03:53.495Z,923.74
2023-03-14T04:04:24.105Z,923.91
2023-03-14T04:04:55.182Z,923.91
2023-03-14T04:05:25.907Z,923.84
2023-03-14T04:05:56.754Z,923.84
2023-03-14T04:06:27.348Z,923.84
2023-03-14T04:06:58.480Z,923.84
2023-03-14T04:07:29.529Z,923.91
2023-03-14T04:08:00.439Z,923.91
2023-03-14T04:08:31.353Z,923.53
2023-03-14T04:09:03.436Z,923.53
2023-03-14T04:09:34.083Z,923.84
2023-03-14T04:10:04.799Z,923.84
2023-03-14T04:10:35.520Z,923.74
2023-03-14T04:11:06.645Z,923.74
2023-03-14T04:11:37.693Z,923.74
2023-03-14T04:12:08.860Z,923.84
2023-03-14T04:12:39.926Z,923.84
2023-03-14T04:13:10.317Z,923.91
2023-03-14T04:13:41.698Z,923.91
2023-03-14T04:14:13.478Z,923.74
2023-03-14T04:14:43.543Z,923.74
2023-03-14T04:15:17.560Z,923.74
2023-03-14T04:15:45.482Z,923.74
2023-03-14T04:16:16.828Z,923.74
2023-03-14T04:16:47.871Z,923.74
2023-03-14T04:17:18.210Z,923.84
2023-03-14T04:17:49.518Z,923.84
2023-03-14T04:18:20.369Z,923.84
2023-03-14T04:18:51.292Z,923.84
2023-03-14T04:19:23.399Z,923.74
2023-03-14T04:19:53.699Z,923.74
2023-03-14T04:20:24.856Z,923.53
2023-03-14T04:20:56.096Z,923.53
2023-03-14T04:21:27.036Z,923.53
2023-03-14T04:21:57.634Z,923.53
2023-03-14T04:22:28.508Z,923.64
2023-03-14T04:22:59.353Z,923.64
2023-03-14T04:23:30.488Z,923.64
2023-03-14T04:24:01.704Z,923.64
2023-03-14T04:24:33.886Z,923.33
2023-03-14T04:25:03.815Z,923.33
2023-03-14T04:25:34.679Z,923.43
2023-03-14T04:26:05.267Z,923.43
2023-03-14T04:26:36.266Z,923.64
2023-03-14T04:27:07.308Z,923.64
2023-03-14T04:27:38.341Z,923.53
2023-03-14T04:28:10.127Z,923.64
2023-03-14T04:28:40.335Z,923.64
2023-03-14T04:29:13.187Z,923.64
2023-03-14T04:29:43.487Z,923.64
2023-03-14T04:30:16.511Z,923.64
2023-03-14T04:30:44.962Z,923.64
2023-03-14T04:31:15.316Z,923.64
2023-03-14T04:31:46.444Z,923.64
2023-03-14T04:32:17.374Z,923.33
2023-03-14T04:32:48.609Z,923.33
2023-03-14T04:33:19.686Z,923.53
2023-03-14T04:33:50.571Z,923.53
2023-03-14T04:34:21.447Z,923.64
2023-03-14T04:34:53.572Z,923.64
2023-03-14T04:35:23.656Z,923.53
2023-03-14T04:35:54.975Z,923.53
2023-03-14T04:36:25.290Z,923.53
2023-03-14T04:36:56.724Z,923.53
2023-03-14T04:37:27.355Z,923.43
2023-03-14T04:37:58.738Z,923.43
2023-03-14T04:38:30.476Z,923.53
2023-03-14T04:39:00.810Z,923.53
2023-03-14T04:39:32.124Z,923.43
2023-03-14T04:40:03.450Z,923.43
2023-03-14T04:40:33.542Z,923.33
2023-03-14T04:41:04.533Z,923.33
2023-03-14T04:41:35.434Z,923.53
2023-03-14T04:42:06.962Z,923.53
2023-03-14T04:42:37.681Z,923.53
2023-03-14T04:43:09.150Z,923.33
2023-03-14T04:43:39.973Z,923.33
2023-03-14T04:44:10.378Z,923.33
2023-03-14T04:44:41.882Z,923.33
2023-03-14T04:45:16.356Z,923.64
2023-03-14T04:45:43.282Z,923.64
2023-03-14T04:46:14.705Z,923.64
2023-03-14T04:46:45.559Z,923.64
2023-03-14T04:49:52.008Z,923.43
2023-03-14T04:50:23.581Z,923.33
2023-03-14T04:50:53.507Z,923.33
2023-03-14T04:51:24.921Z,923.33
2023-03-14T04:51:55.609Z,923.33
2023-03-14T04:52:26.672Z,923.23
2023-03-14T04:52:57.520Z,923.23
2023-03-14T04:53:28.657Z,923.53
2023-03-14T04:53:59.494Z,923.53
2023-03-14T04:54:30.962Z,923.13
2023-03-14T04:55:01.726Z,923.13
2023-03-14T04:55:33.824Z,923.33
2023-03-14T04:56:03.534Z,923.33
2023-03-14T04:56:34.380Z,923.13
2023-03-14T04:57:05.356Z,923.13
2023-03-14T04:57:36.216Z,923.23
2023-03-14T04:58:07.853Z,923.23
2023-03-14T04:58:38.671Z,923.23
2023-03-14T04:59:09.569Z,923.13
2023-03-14T04:59:40.700Z,923.13
2023-03-14T05:00:14.716Z,923.13
2023-03-14T05:00:43.388Z,923.13
2023-03-14T05:01:13.488Z,923.53
2023-03-14T05:01:44.323Z,923.53
2023-03-14T05:02:15.543Z,923.23
2023-03-14T05:02:46.537Z,923.23
2023-03-14T05:03:17.341Z,923.13
2023-03-14T05:03:48.406Z,923.13
2023-03-14T05:04:19.325Z,923.33
2023-03-14T05:04:50.398Z,923.33
2023-03-14T05:05:21.517Z,923.33
2023-03-14T05:05:53.450Z,923.33
2023-03-14T05:06:23.444Z,923.33
2023-03-14T05:06:54.816Z,923.33
2023-03-14T05:07:25.756Z,923.13
2023-03-14T05:07:56.619Z,923.13
2023-03-14T05:08:27.548Z,923.03
2023-03-14T05:08:58.451Z,923.03
2023-03-14T05:09:29.405Z,923.23
2023-03-14T05:10:00.562Z,923.23
2023-03-14T05:10:31.902Z,923.13
2023-03-14T05:11:03.444Z,923.13
2023-03-14T05:11:33.509Z,923.23
2023-03-14T05:12:04.916Z,923.23
2023-03-14T05:12:35.770Z,923.23
2023-03-14T05:13:06.644Z,923.23
2023-03-14T05:13:40.198Z,923.13
2023-03-14T05:14:08.532Z,922.92
2023-03-14T05:14:39.473Z,922.92
2023-03-14T05:15:13.552Z,923.33
2023-03-14T05:15:41.611Z,923.33
2023-03-14T05:16:13.694Z,923.23
2023-03-14T05:16:46.013Z,923.23
2023-03-14T05:17:14.909Z,923.13
2023-03-14T05:17:46.146Z,923.13
2023-03-14T05:18:16.448Z,923.03
2023-03-14T05:18:47.470Z,923.03
2023-03-14T05:19:18.467Z,923.23
2023-03-14T05:19:49.251Z,923.23
2023-03-14T05:20:20.529Z,923.13
2023-03-14T05:20:51.421Z,923.13
2023-03-14T05:21:23.518Z,923.03
2023-03-14T05:21:53.261Z,923.03
2023-03-14T05:22:24.420Z,923.03
2023-03-14T05:22:55.475Z,923.03
2023-03-14T05:23:26.565Z,923.13
2023-03-14T05:23:57.765Z,923.13
2023-03-14T05:24:28.358Z,923.13
2023-03-14T05:24:59.593Z,923.13
2023-03-14T05:25:32.658Z,923.13
2023-03-14T05:26:01.584Z,923.13
2023-03-14T05:26:33.175Z,923.23
2023-03-14T05:27:03.546Z,923.23
2023-03-14T05:27:34.405Z,923.13
2023-03-14T05:28:05.983Z,923.13
2023-03-14T05:28:36.420Z,923.13
2023-03-14T05:29:07.495Z,923.13
2023-03-14T05:29:38.450Z,923.13
2023-03-14T05:30:12.834Z,922.92
2023-03-14T05:30:40.698Z,922.92
2023-03-14T05:31:11.448Z,922.92
2023-03-14T05:31:43.639Z,922.92
2023-03-14T05:32:14.098Z,923.13
2023-03-14T05:32:45.054Z,923.13
2023-03-14T05:33:15.722Z,923.03
2023-03-14T05:33:46.554Z,923.03
2023-03-14T05:34:17.780Z,922.92
2023-03-14T05:34:48.328Z,922.92
2023-03-14T05:35:19.661Z,923.03
2023-03-14T05:35:50.862Z,923.03
2023-03-14T05:36:21.898Z,922.82
2023-03-14T05:36:53.648Z,922.82
2023-03-14T05:37:23.530Z,922.92
2023-03-14T05:37:54.612Z,922.92
2023-03-14T05:38:25.515Z,922.72
2023-03-14T05:38:56.346Z,922.72
2023-03-14T05:39:27.761Z,922.72
2023-03-14T05:39:58.892Z,922.72
2023-03-14T05:40:29.637Z,922.72
2023-03-14T05:41:00.594Z,922.72
2023-03-14T05:41:31.558Z,922.82
2023-03-14T05:42:03.436Z,922.82
2023-03-14T05:42:33.354Z,922.72
2023-03-14T05:43:04.600Z,922.72
2023-03-14T05:43:35.808Z,922.72
2023-03-14T05:44:06.848Z,922.72
2023-03-14T05:44:37.876Z,923.03
2023-03-14T05:45:11.871Z,922.72
2023-03-14T05:45:40.091Z,922.72
2023-03-14T05:46:11.359Z,922.62
2023-03-14T05:46:42.220Z,922.62
2023-03-14T05:47:14.203Z,922.52
2023-03-14T05:47:43.864Z,922.52
2023-03-14T05:48:14.652Z,922.62
2023-03-14T05:48:45.711Z,922.62
2023-03-14T05:49:16.663Z,922.72
2023-03-14T05:49:48.195Z,922.72
2023-03-14T05:50:18.745Z,922.52
2023-03-14T05:50:49.881Z,922.52
2023-03-14T05:51:20.818Z,922.31
2023-03-14T05:51:51.580Z,922.31
2023-03-14T05:52:23.734Z,922.21
2023-03-14T05:52:53.685Z,922.21
2023-03-14T05:53:24.594Z,922.31
2023-03-14T05:53:55.889Z,922.31
2023-03-14T05:54:26.849Z,922.52
2023-03-14T05:54:57.756Z,922.52
2023-03-14T05:55:29.004Z,922.72
2023-03-14T05:55:59.772Z,922.72
2023-03-14T05:56:30.691Z,922.52
2023-03-14T05:57:01.529Z,922.52
2023-03-14T05:57:33.614Z,922.62
2023-03-14T05:58:03.662Z,922.62
2023-03-14T05:58:34.825Z,922.52
2023-03-14T05:59:05.687Z,922.52
2023-03-14T05:59:36.789Z,922.62
2023-03-14T06:00:10.844Z,922.62
2023-03-14T06:00:38.596Z,922.42
2023-03-14T06:01:10.107Z,922.52
2023-03-14T06:01:41.027Z,922.52
2023-03-14T06:02:11.810Z,922.31
2023-03-14T06:02:43.562Z,922.31
2023-03-14T06:03:13.732Z,922.31
2023-03-14T06:03:44.651Z,922.31
2023-03-14T06:04:15.783Z,922.42
2023-03-14T06:04:46.677Z,922.42
2023-03-14T06:05:17.745Z,922.42
2023-03-14T06:05:48.674Z,922.42
2023-03-14T06:06:20.322Z,922.72
2023-03-14T06:06:50.788Z,922.72
2023-03-14T06:07:22.237Z,922.42
2023-03-14T06:07:53.901Z,922.42
2023-03-14T06:08:23.780Z,922.52
2023-03-14T06:08:54.766Z,922.52
2023-03-14T06:09:25.847Z,922.42
2023-03-14T06:09:56.888Z,922.42
2023-03-14T06:10:27.700Z,922.31
2023-03-14T06:10:58.923Z,922.31
2023-03-14T06:11:29.774Z,922.31
2023-03-14T06:12:00.711Z,922.31
2023-03-14T06:12:31.736Z,922.52
2023-03-14T06:13:03.479Z,922.52
2023-03-14T06:13:33.772Z,922.62
2023-03-14T06:14:04.787Z,922.62
2023-03-14T06:14:35.742Z,922.42
2023-03-14T06:15:09.996Z,922.42
2023-03-14T06:15:37.880Z,922.42
2023-03-14T06:16:09.083Z,922.42
2023-03-14T06:16:39.839Z,922.42
2023-03-14T06:17:11.217Z,922.42
2023-03-14T06:17:41.943Z,922.42
2023-03-14T06:18:14.089Z,922.21
2023-03-14T06:18:44.103Z,922.21
2023-03-14T06:19:15.051Z,922.52
2023-03-14T06:19:45.939Z,922.52
2023-03-14T06:20:16.872Z,922.42
2023-03-14T06:20:47.844Z,922.42
2023-03-14T06:21:19.369Z,922.42
2023-03-14T06:21:50.189Z,922.42
2023-03-14T06:22:21.492Z,922.42
2023-03-14T06:22:51.922Z,922.42
2023-03-14T06:23:23.802Z,922.42
2023-03-14T06:23:53.493Z,922.42
2023-03-14T06:24:25.031Z,922.42
2023-03-14T06:24:56.574Z,922.42
2023-03-14T06:25:26.700Z,922.42
2023-03-14T06:25:57.768Z,922.42
2023-03-14T06:26:28.965Z,922.31
2023-03-14T06:26:59.577Z,922.31
2023-03-14T06:27:30.709Z,922.52
2023-03-14T06:28:01.988Z,922.52
2023-03-14T06:28:34.074Z,922.21
2023-03-14T06:29:04.227Z,922.21
2023-03-14T06:29:34.913Z,922.42
2023-03-14T06:30:08.765Z,922.42
2023-03-14T06:30:37.201Z,922.31